createdAt,value
2023-04-19T00:00:09.563Z,99425.89
2023-04-19T00:02:41.590Z,99418.72
2023-04-19T00:05:12.147Z,99418.23
2023-04-19T00:07:40.582Z,99418.39
2023-04-19T00:10:09.625Z,99418.63
2023-04-19T00:12:38.777Z,99418.14
2023-04-19T00:15:07.671Z,99416.90
2023-04-19T00:17:36.489Z,99415.16
2023-04-19T00:20:06.102Z,99417.84
2023-04-19T00:22:35.096Z,99415.60
2023-04-19T00:25:03.226Z,99413.52
2023-04-19T00:27:31.540Z,99411.50
2023-04-19T00:30:01.866Z,99406.31
2023-04-19T00:32:30.530Z,99404.82
2023-04-19T00:34:59.147Z,99403.52
2023-04-19T00:37:27.327Z,99401.20
2023-04-19T00:39:55.477Z,99401.06
2023-04-19T00:42:23.688Z,99404.69
2023-04-19T00:44:51.767Z,99403.59
2023-04-19T00:47:19.948Z,99395.48
2023-04-19T00:49:48.331Z,99395.89
2023-04-19T00:52:17.733Z,99393.67
2023-04-19T00:54:46.120Z,99392.51
2023-04-19T00:57:15.760Z,99391.33
2023-04-19T00:59:44.009Z,99388.58
2023-04-19T01:02:13.005Z,99388.93
2023-04-19T01:04:41.287Z,99391.03
2023-04-19T01:07:09.499Z,99389.65
2023-04-19T01:09:41.438Z,99382.77
2023-04-19T01:12:09.609Z,99378.59
2023-04-19T01:14:38.407Z,99375.38
2023-04-19T01:17:07.721Z,99373.25
2023-04-19T01:19:36.931Z,99376.07
2023-04-19T01:22:06.641Z,99372.47
2023-04-19T01:24:34.899Z,99369.20
2023-04-19T01:27:03.731Z,99371.75
2023-04-19T01:29:31.993Z,99371.64
2023-04-19T01:32:00.060Z,99369.82
2023-04-19T01:34:28.950Z,99368.70
2023-04-19T01:36:58.176Z,99364.82
2023-04-19T01:39:26.641Z,99364.59
2023-04-19T01:41:54.911Z,99362.46
2023-04-19T01:44:23.211Z,99363.11
2023-04-19T01:46:51.310Z,99359.48
2023-04-19T01:49:19.494Z,99356.23
2023-04-19T01:51:47.773Z,99359.30
2023-04-19T01:54:16.105Z,99362.17
2023-04-19T01:56:44.514Z,99363.01
2023-04-19T01:59:12.581Z,99363.51
2023-04-19T02:01:41.355Z,99361.48
2023-04-19T02:04:10.709Z,99356.41
2023-04-19T02:06:38.799Z,99359.73
2023-04-19T02:09:07.041Z,99354.12
2023-04-19T02:11:35.535Z,99351.21
2023-04-19T02:14:03.827Z,99346.13
2023-04-19T02:16:33.813Z,99344.77
2023-04-19T02:19:03.620Z,99346.98
2023-04-19T02:21:32.326Z,99349.52
2023-04-19T02:24:01.287Z,99353.14
2023-04-19T02:26:29.656Z,99349.80
2023-04-19T02:28:57.713Z,99350.92
2023-04-19T02:31:25.985Z,99350.98
2023-04-19T02:33:54.365Z,99350.36
2023-04-19T02:36:22.677Z,99350.24
2023-04-19T02:38:53.174Z,99349.45
2023-04-19T02:41:21.772Z,99349.54
2023-04-19T02:43:49.963Z,99352.44
2023-04-19T02:46:18.142Z,99352.38
2023-04-19T02:48:46.549Z,99354.38
2023-04-19T02:51:17.907Z,99354.43
2023-04-19T02:53:45.996Z,99354.16
2023-04-19T02:56:14.116Z,99355.97
2023-04-19T02:58:42.230Z,99357.77
2023-04-19T03:01:10.444Z,99360.64
2023-04-19T03:03:38.875Z,99358.41
2023-04-19T03:06:07.241Z,99355.48
2023-04-19T03:08:36.451Z,99355.73
2023-04-19T03:11:05.511Z,99356.28
2023-04-19T03:13:33.965Z,99354.55
2023-04-19T03:16:02.119Z,99352.12
2023-04-19T03:18:32.034Z,99344.95
2023-04-19T03:21:01.376Z,99344.64
2023-04-19T03:23:31.544Z,99339.61
2023-04-19T03:26:01.336Z,99338.37
2023-04-19T03:28:39.888Z,99332.38
2023-04-19T03:31:30.991Z,99331.17
2023-04-19T03:33:59.701Z,99333.64
2023-04-19T03:36:31.225Z,99336.84
2023-04-19T03:38:59.242Z,99335.50
2023-04-19T03:41:28.169Z,99332.27
2023-04-19T03:44:22.167Z,99335.79
2023-04-19T03:46:50.436Z,99331.82
2023-04-19T03:49:22.298Z,99328.11
2023-04-19T03:51:55.800Z,99329.45
2023-04-19T03:54:23.975Z,99328.20
2023-04-19T03:56:52.042Z,99329.55
2023-04-19T03:59:20.129Z,99333.48
2023-04-19T04:01:48.500Z,99336.38
2023-04-19T04:04:17.137Z,99335.05
2023-04-19T04:06:45.925Z,99333.56
2023-04-19T04:09:14.700Z,99338.18
2023-04-19T04:11:42.912Z,99332.86
2023-04-19T04:14:11.564Z,99333.80
2023-04-19T04:16:40.155Z,99332.23
2023-04-19T04:19:08.952Z,99330.66
2023-04-19T04:21:39.369Z,99328.80
2023-04-19T04:24:08.125Z,99332.96
2023-04-19T04:26:58.089Z,99328.70
2023-04-19T04:29:29.754Z,99325.79
2023-04-19T04:32:00.073Z,99328.05
2023-04-19T04:34:33.243Z,99327.73
2023-04-19T04:37:09.083Z,99327.58
2023-04-19T04:39:40.018Z,99331.92
2023-04-19T04:42:09.176Z,99333.48
2023-04-19T04:44:37.475Z,99330.16
2023-04-19T04:47:05.780Z,99330.77
2023-04-19T04:49:38.700Z,99329.42
2023-04-19T04:52:08.827Z,99333.71
2023-04-19T04:54:42.456Z,99337.84
2023-04-19T04:57:18.787Z,99337.35
2023-04-19T04:59:48.507Z,99339.25
2023-04-19T05:02:21.108Z,99342.05
2023-04-19T05:04:49.837Z,99339.79
2023-04-19T05:07:17.918Z,99337.86
2023-04-19T05:09:46.506Z,99338.61
2023-04-19T05:12:15.757Z,99343.75
2023-04-19T05:14:43.961Z,99339.88
2023-04-19T05:17:12.129Z,99341.16
2023-04-19T05:19:40.298Z,99342.36
2023-04-19T05:22:08.580Z,99344.63
2023-04-19T05:24:38.009Z,99341.17
2023-04-19T05:27:06.918Z,99343.73
2023-04-19T05:29:35.078Z,99345.59
2023-04-19T05:32:03.176Z,99348.52
2023-04-19T05:34:34.953Z,99348.23
2023-04-19T05:37:04.034Z,99349.48
2023-04-19T05:39:32.268Z,99346.30
2023-04-19T05:42:00.719Z,99343.06
2023-04-19T05:44:30.257Z,99344.21
2023-04-19T05:46:58.390Z,99344.14
2023-04-19T05:49:51.417Z,99339.82
2023-04-19T05:52:31.894Z,99342.63
2023-04-19T05:55:01.825Z,99346.84
2023-04-19T05:57:31.078Z,99344.39
2023-04-19T06:02:41.755Z,99342.92
2023-04-19T06:05:12.602Z,99334.08
2023-04-19T06:07:47.263Z,99335.91
2023-04-19T06:10:23.851Z,99333.10
2023-04-19T06:12:52.089Z,99331.73
2023-04-19T06:15:21.041Z,99332.47
2023-04-19T06:17:49.432Z,99331.45
2023-04-19T06:20:17.613Z,99323.77
2023-04-19T06:22:46.032Z,99326.19
2023-04-19T06:25:15.235Z,99321.39
2023-04-19T06:27:43.420Z,99321.38
2023-04-19T06:30:11.703Z,99322.17
2023-04-19T06:32:39.996Z,99316.89
2023-04-19T06:35:10.942Z,99317.58
2023-04-19T06:37:39.315Z,99320.69
2023-04-19T06:40:08.739Z,99314.45
2023-04-19T06:42:38.041Z,99312.04
2023-04-19T06:45:08.756Z,99309.14
2023-04-19T06:47:37.374Z,99308.27
2023-04-19T06:50:06.587Z,99307.54
2023-04-19T06:52:34.993Z,99307.44
2023-04-19T06:55:03.152Z,99308.00
2023-04-19T06:57:31.368Z,99306.08
2023-04-19T06:59:59.674Z,99307.97
2023-04-19T07:02:28.488Z,99303.22
2023-04-19T07:04:57.159Z,99304.96
2023-04-19T07:07:25.444Z,99300.23
2023-04-19T07:09:53.514Z,99298.61
2023-04-19T07:12:21.832Z,99297.30
2023-04-19T07:14:49.871Z,99297.39
2023-04-19T07:17:18.878Z,99295.97
2023-04-19T07:19:49.988Z,99297.02
2023-04-19T07:22:18.198Z,99292.33
2023-04-19T07:24:46.510Z,99296.48
2023-04-19T07:27:14.976Z,99301.25
2023-04-19T07:29:43.203Z,99304.19
2023-04-19T07:32:12.493Z,99302.83
2023-04-19T07:34:41.546Z,99302.83
2023-04-19T07:37:09.726Z,99303.63
2023-04-19T07:39:38.158Z,99299.60
2023-04-19T07:42:06.394Z,99300.67
2023-04-19T07:44:34.575Z,99303.04
2023-04-19T07:47:05.302Z,99304.91
2023-04-19T07:49:34.559Z,99304.55
2023-04-19T07:52:03.238Z,99305.23
2023-04-19T07:54:32.412Z,99303.36
2023-04-19T07:57:00.686Z,99305.61
2023-04-19T07:59:29.486Z,99307.26
2023-04-19T08:01:57.848Z,99302.91
2023-04-19T08:04:26.611Z,99303.21
2023-04-19T08:06:55.453Z,99302.80
2023-04-19T08:09:23.771Z,99300.48
2023-04-19T08:11:53.719Z,99298.65
2023-04-19T08:14:34.839Z,99296.90
2023-04-19T08:17:22.842Z,99300.40
2023-04-19T08:19:54.115Z,99299.22
2023-04-19T08:22:22.900Z,99302.47
2023-04-19T08:24:54.086Z,99302.97
2023-04-19T08:27:22.365Z,99295.87
2023-04-19T08:29:50.921Z,99297.18
2023-04-19T08:32:19.312Z,99293.73
2023-04-19T08:34:47.801Z,99286.52
2023-04-19T08:37:16.109Z,99288.84
2023-04-19T08:39:44.460Z,99283.65
2023-04-19T08:42:28.827Z,99279.39
2023-04-19T08:45:25.969Z,99277.95
2023-04-19T08:48:00.634Z,99276.13
2023-04-19T08:50:35.946Z,99273.90
2023-04-19T08:55:59.047Z,99271.95
2023-04-19T09:01:05.150Z,99270.94
2023-04-19T09:03:44.081Z,99270.77
2023-04-19T09:06:16.159Z,99269.70
2023-04-19T09:08:44.433Z,99267.68
2023-04-19T09:11:12.782Z,99262.34
2023-04-19T09:13:42.730Z,99261.35
2023-04-19T09:16:24.568Z,99264.04
2023-04-19T09:19:08.221Z,99265.27
2023-04-19T09:21:44.013Z,99271.05
2023-04-19T09:24:12.399Z,99270.80
2023-04-19T09:26:40.489Z,99273.60
2023-04-19T09:29:08.955Z,99274.01
2023-04-19T09:31:50.500Z,99277.92
2023-04-19T09:34:19.950Z,99280.34
2023-04-19T09:36:52.491Z,99281.41
2023-04-19T09:39:32.681Z,99287.64
2023-04-19T09:42:02.294Z,99284.01
2023-04-19T09:47:01.889Z,99284.45
2023-04-19T09:49:46.011Z,99271.05
2023-04-19T09:52:17.725Z,99270.29
2023-04-19T09:54:46.272Z,99269.63
2023-04-19T09:57:15.004Z,99266.45
2023-04-19T09:59:43.063Z,99265.51
2023-04-19T10:02:11.503Z,99266.08
2023-04-19T10:04:59.642Z,99271.96
2023-04-19T10:07:30.823Z,99267.84
2023-04-19T10:12:52.386Z,99267.95
2023-04-19T10:15:22.314Z,99265.45
2023-04-19T10:17:50.499Z,99269.18
2023-04-19T10:20:47.138Z,99268.38
2023-04-19T10:23:15.264Z,99269.86
2023-04-19T10:25:46.844Z,99275.84
2023-04-19T10:28:18.201Z,99273.19
2023-04-19T10:30:59.105Z,99274.23
2023-04-19T10:33:32.284Z,99275.52
2023-04-19T10:36:00.849Z,99266.52
2023-04-19T10:41:59.682Z,99272.77
2023-04-19T10:44:28.020Z,99279.91
2023-04-19T10:46:56.186Z,99278.88
2023-04-19T10:49:24.387Z,99276.60
2023-04-19T10:51:55.035Z,99269.25
2023-04-19T10:54:37.778Z,99273.80
2023-04-19T10:57:06.937Z,99285.40
2023-04-19T10:59:35.814Z,99284.05
2023-04-19T11:02:25.284Z,99282.60
2023-04-19T11:04:54.118Z,99285.25
2023-04-19T11:07:22.588Z,99288.01
2023-04-19T11:09:52.019Z,99285.02
2023-04-19T11:12:21.486Z,99279.80
2023-04-19T11:14:54.270Z,99283.70
2023-04-19T11:17:27.915Z,99280.38
2023-04-19T11:20:00.475Z,99273.69
2023-04-19T11:22:36.354Z,99275.54
2023-04-19T11:25:20.800Z,99284.02
2023-04-19T11:27:53.255Z,99288.84
2023-04-19T11:30:23.253Z,99292.83
2023-04-19T11:32:55.950Z,99296.44
2023-04-19T11:35:25.233Z,99294.42
2023-04-19T11:37:54.108Z,99291.30
2023-04-19T11:40:23.462Z,99291.07
2023-04-19T11:42:56.140Z,99302.16
2023-04-19T11:45:35.510Z,99300.48
2023-04-19T11:48:05.955Z,99301.54
2023-04-19T11:50:42.253Z,99299.77
2023-04-19T11:53:16.861Z,99301.30
2023-04-19T11:55:52.242Z,99297.86
2023-04-19T11:58:29.164Z,99298.58
2023-04-19T12:01:08.954Z,99299.42
2023-04-19T12:03:56.810Z,99299.63
2023-04-19T12:06:27.115Z,99303.14
2023-04-19T12:08:56.161Z,99299.67
2023-04-19T12:11:26.618Z,99299.48
2023-04-19T12:14:15.734Z,99300.05
2023-04-19T12:16:45.267Z,99298.96
2023-04-19T12:19:14.760Z,99302.54
2023-04-19T12:21:43.498Z,99297.52
2023-04-19T12:24:12.487Z,99299.41
2023-04-19T12:27:04.329Z,99302.96
2023-04-19T12:29:35.367Z,99299.19
2023-04-19T12:32:03.872Z,99299.52
2023-04-19T12:34:32.348Z,99300.52
2023-04-19T12:37:01.138Z,99306.23
2023-04-19T12:39:32.787Z,99309.64
2023-04-19T12:42:01.423Z,99313.98
2023-04-19T12:44:29.704Z,99313.81
2023-04-19T12:46:58.163Z,99311.29
2023-04-19T12:49:26.540Z,99314.64
2023-04-19T12:51:57.014Z,99315.39
2023-04-19T12:54:25.541Z,99316.65
2023-04-19T12:56:54.230Z,99321.77
2023-04-19T12:59:22.501Z,99321.17
2023-04-19T13:01:50.717Z,99322.42
2023-04-19T13:04:19.414Z,99319.35
2023-04-19T13:06:48.271Z,99319.96
2023-04-19T13:09:16.449Z,99319.08
2023-04-19T13:11:44.735Z,99324.56
2023-04-19T13:14:13.104Z,99321.93
2023-04-19T13:16:41.709Z,99327.20
2023-04-19T13:19:09.780Z,99325.10
2023-04-19T13:21:38.062Z,99320.83
2023-04-19T13:24:08.822Z,99321.37
2023-04-19T13:26:38.552Z,99321.26
2023-04-19T13:29:08.570Z,99320.41
2023-04-19T13:31:37.271Z,99322.80
2023-04-19T13:34:08.171Z,99323.26
2023-04-19T13:36:37.883Z,99324.96
2023-04-19T13:39:08.159Z,99328.34
2023-04-19T13:41:36.947Z,99335.33
2023-04-19T13:44:05.190Z,99336.05
2023-04-19T13:46:34.459Z,99336.73
2023-04-19T13:49:02.551Z,99333.48
2023-04-19T13:51:46.401Z,99331.52
2023-04-19T13:54:18.806Z,99329.31
2023-04-19T13:56:49.770Z,99330.86
2023-04-19T13:59:19.699Z,99335.27
2023-04-19T14:01:47.955Z,99333.11
2023-04-19T14:04:16.355Z,99335.02
2023-04-19T14:06:45.417Z,99340.60
2023-04-19T14:09:13.917Z,99342.90
2023-04-19T14:11:42.213Z,99349.02
2023-04-19T14:14:10.649Z,99344.62
2023-04-19T14:16:38.753Z,99347.98
2023-04-19T14:19:10.710Z,99345.40
2023-04-19T14:21:41.313Z,99343.90
2023-04-19T14:24:09.368Z,99347.11
2023-04-19T14:26:40.722Z,99349.94
2023-04-19T14:29:08.947Z,99344.09
2023-04-19T14:31:37.060Z,99349.86
2023-04-19T14:34:05.136Z,99351.23
2023-04-19T14:36:33.219Z,99345.91
2023-04-19T14:39:01.547Z,99344.29
2023-04-19T14:41:30.419Z,99346.25
2023-04-19T14:43:58.818Z,99342.24
2023-04-19T14:46:26.994Z,99344.73
2023-04-19T14:48:55.059Z,99346.98
2023-04-19T14:51:23.102Z,99348.26
2023-04-19T14:53:51.140Z,99349.50
2023-04-19T14:56:19.193Z,99348.55
2023-04-19T14:58:48.104Z,99347.23
2023-04-19T15:01:16.449Z,99351.42
2023-04-19T15:03:46.598Z,99342.91
2023-04-19T15:06:19.417Z,99342.33
2023-04-19T15:08:47.861Z,99345.97
2023-04-19T15:11:16.322Z,99348.48
2023-04-19T15:13:44.501Z,99346.52
2023-04-19T15:16:12.610Z,99349.98
2023-04-19T15:18:41.212Z,99350.41
2023-04-19T15:21:09.482Z,99350.16
2023-04-19T15:23:37.587Z,99340.59
2023-04-19T15:26:05.649Z,99338.80
2023-04-19T15:28:36.219Z,99334.22
2023-04-19T15:31:05.630Z,99336.68
2023-04-19T15:33:35.602Z,99329.43
2023-04-19T15:36:04.398Z,99329.16
2023-04-19T15:38:32.990Z,99330.45
2023-04-19T15:41:03.724Z,99329.67
2023-04-19T15:43:32.006Z,99329.30
2023-04-19T15:46:00.502Z,99331.98
2023-04-19T15:48:29.284Z,99334.88
2023-04-19T15:50:57.369Z,99331.20
2023-04-19T15:53:25.549Z,99333.85
2023-04-19T15:55:55.822Z,99330.50
2023-04-19T15:58:24.422Z,99328.89
2023-04-19T16:00:52.660Z,99327.42
2023-04-19T16:03:21.146Z,99327.80
2023-04-19T16:05:51.849Z,99324.41
2023-04-19T16:08:20.133Z,99327.19
2023-04-19T16:10:49.062Z,99324.02
2023-04-19T16:13:17.654Z,99325.80
2023-04-19T16:15:45.898Z,99328.08
2023-04-19T16:18:14.314Z,99330.66
2023-04-19T16:20:42.468Z,99330.96
2023-04-19T16:23:14.849Z,99332.54
2023-04-19T16:25:42.987Z,99333.11
2023-04-19T16:28:11.305Z,99334.81
2023-04-19T16:30:42.630Z,99338.85
2023-04-19T16:33:11.485Z,99339.23
2023-04-19T16:35:39.763Z,99342.44
2023-04-19T16:38:14.835Z,99345.85
2023-04-19T16:40:44.616Z,99347.66
2023-04-19T16:43:12.695Z,99349.75
2023-04-19T16:45:44.729Z,99352.20
2023-04-19T16:48:12.850Z,99351.52
2023-04-19T16:50:41.250Z,99351.84
2023-04-19T16:53:09.343Z,99358.55
2023-04-19T16:55:40.775Z,99358.64
2023-04-19T16:58:08.851Z,99358.23
2023-04-19T17:00:37.019Z,99363.73
2023-04-19T17:03:08.164Z,99366.11
2023-04-19T17:05:37.011Z,99372.34
2023-04-19T17:08:05.412Z,99370.63
2023-04-19T17:10:33.586Z,99374.67
2023-04-19T17:13:01.640Z,99376.88
2023-04-19T17:15:29.876Z,99382.42
2023-04-19T17:17:57.989Z,99383.05
2023-04-19T17:20:26.157Z,99386.15
2023-04-19T17:22:54.183Z,99385.24
2023-04-19T17:25:22.537Z,99388.63
2023-04-19T17:27:51.125Z,99390.45
2023-04-19T17:30:19.231Z,99390.39
2023-04-19T17:32:47.411Z,99392.25
2023-04-19T17:35:15.527Z,99401.42
2023-04-19T17:37:43.830Z,99403.99
2023-04-19T17:40:12.363Z,99408.84
2023-04-19T17:42:43.179Z,99412.95
2023-04-19T17:45:11.698Z,99417.14
2023-04-19T17:47:40.038Z,99414.67
2023-04-19T17:50:12.446Z,99418.73
2023-04-19T17:52:43.155Z,99417.95
2023-04-19T17:55:11.236Z,99421.02
2023-04-19T17:57:40.200Z,99423.95
2023-04-19T18:00:10.783Z,99420.23
2023-04-19T18:02:40.897Z,99428.12
2023-04-19T18:05:09.556Z,99426.08
2023-04-19T18:07:37.963Z,99427.14
2023-04-19T18:10:06.760Z,99430.98
2023-04-19T18:12:36.734Z,99432.48
2023-04-19T18:15:06.655Z,99430.00
2023-04-19T18:17:35.922Z,99437.33
2023-04-19T18:20:05.839Z,99434.53
2023-04-19T18:22:34.110Z,99432.65
2023-04-19T18:25:02.182Z,99439.17
2023-04-19T18:27:32.454Z,99442.94
2023-04-19T18:30:04.037Z,99443.26
2023-04-19T18:32:33.690Z,99446.77
2023-04-19T18:35:04.537Z,99447.19
2023-04-19T18:37:46.904Z,99451.23
2023-04-19T18:40:24.783Z,99453.00
2023-04-19T18:42:52.876Z,99450.25
2023-04-19T18:45:23.777Z,99449.48
2023-04-19T18:47:55.359Z,99457.33
2023-04-19T18:50:23.736Z,99454.80
2023-04-19T18:52:51.928Z,99452.95
2023-04-19T18:55:20.061Z,99455.48
2023-04-19T18:57:48.146Z,99454.88
2023-04-19T19:00:17.365Z,99456.63
2023-04-19T19:02:46.266Z,99455.36
2023-04-19T19:05:16.182Z,99455.23
2023-04-19T19:07:45.585Z,99454.72
2023-04-19T19:10:19.104Z,99459.36
2023-04-19T19:12:50.442Z,99459.34
2023-04-19T19:15:18.953Z,99455.83
2023-04-19T19:17:49.911Z,99459.02
2023-04-19T19:20:19.639Z,99458.02
2023-04-19T19:22:48.543Z,99458.56
2023-04-19T19:25:16.927Z,99459.06
2023-04-19T19:28:04.961Z,99455.45
2023-04-19T19:30:34.808Z,99452.95
2023-04-19T19:33:05.053Z,99454.05
2023-04-19T19:35:33.598Z,99447.94
2023-04-19T19:38:01.795Z,99448.63
2023-04-19T19:40:32.441Z,99447.73
2023-04-19T19:43:01.257Z,99447.87
2023-04-19T19:45:30.864Z,99447.48
2023-04-19T19:48:00.012Z,99444.55
2023-04-19T19:53:01.724Z,99443.73
2023-04-19T19:55:30.474Z,99440.81
2023-04-19T20:00:44.054Z,99439.80
2023-04-19T20:03:13.536Z,99439.00
2023-04-19T20:05:41.840Z,99437.80
2023-04-19T20:08:11.950Z,99436.86
2023-04-19T20:10:42.255Z,99438.34
2023-04-19T20:13:13.254Z,99437.13
2023-04-19T20:15:41.832Z,99434.11
2023-04-19T20:18:09.828Z,99434.11
2023-04-19T20:20:38.262Z,99437.59
2023-04-19T20:23:06.422Z,99436.11
2023-04-19T20:25:35.113Z,99436.91
2023-04-19T20:28:03.613Z,99432.85
2023-04-19T20:30:31.666Z,99432.01
2023-04-19T20:32:59.885Z,99428.60
2023-04-19T20:35:28.566Z,99430.38
2023-04-19T20:38:02.837Z,99430.19
2023-04-19T20:40:32.363Z,99433.23
2023-04-19T20:43:01.093Z,99432.48
2023-04-19T20:45:29.995Z,99428.66
2023-04-19T20:47:58.823Z,99428.61
2023-04-19T20:50:27.129Z,99426.42
2023-04-19T20:52:56.790Z,99424.91
2023-04-19T20:55:25.157Z,99423.14
2023-04-19T20:57:53.525Z,99421.34
2023-04-19T21:00:21.653Z,99418.44
2023-04-19T21:02:50.081Z,99419.91
2023-04-19T21:05:18.388Z,99421.40
2023-04-19T21:07:46.846Z,99417.64
2023-04-19T21:10:16.988Z,99415.95
2023-04-19T21:12:45.349Z,99414.88
2023-04-19T21:15:13.527Z,99412.44
2023-04-19T21:17:41.888Z,99410.32
2023-04-19T21:20:14.618Z,99412.91
2023-04-19T21:22:43.530Z,99410.98
2023-04-19T21:25:12.656Z,99410.32
2023-04-19T21:27:41.691Z,99413.83
2023-04-19T21:30:10.707Z,99410.58
2023-04-19T21:32:38.960Z,99412.35
2023-04-19T21:35:08.443Z,99412.15
2023-04-19T21:37:37.100Z,99407.61
2023-04-19T21:40:06.386Z,99408.92
2023-04-19T21:42:35.725Z,99403.61
2023-04-19T21:45:04.341Z,99399.40
2023-04-19T21:47:32.893Z,99394.83
2023-04-19T21:50:01.134Z,99392.51
2023-04-19T21:52:29.845Z,99393.20
2023-04-19T21:54:58.057Z,99394.47
2023-04-19T21:57:27.192Z,99394.10
2023-04-19T21:59:55.493Z,99391.58
2023-04-19T22:02:23.985Z,99392.73
2023-04-19T22:04:54.058Z,99388.28
2023-04-19T22:07:24.128Z,99388.02
2023-04-19T22:09:52.517Z,99386.41
2023-04-19T22:12:20.852Z,99380.64
2023-04-19T22:14:49.045Z,99376.95
2023-04-19T22:17:18.813Z,99375.52
2023-04-19T22:19:47.836Z,99369.75
2023-04-19T22:22:15.905Z,99368.19
2023-04-19T22:24:56.159Z,99367.73
2023-04-19T22:27:25.842Z,99363.52
2023-04-19T22:29:53.992Z,99361.61
2023-04-19T22:32:22.282Z,99365.66
2023-04-19T22:34:50.832Z,99359.34
2023-04-19T22:37:18.967Z,99353.05
2023-04-19T22:39:47.044Z,99350.13
2023-04-19T22:42:15.088Z,99344.80
2023-04-19T22:44:43.138Z,99345.30
2023-04-19T22:47:12.010Z,99343.16
2023-04-19T22:49:43.217Z,99340.04
2023-04-19T22:52:11.967Z,99339.16
2023-04-19T22:54:40.200Z,99337.67
2023-04-19T22:57:08.383Z,99340.83
2023-04-19T22:59:36.419Z,99342.41
2023-04-19T23:02:04.539Z,99339.34
2023-04-19T23:04:36.138Z,99339.98
2023-04-19T23:07:04.511Z,99335.61
2023-04-19T23:09:33.444Z,99332.83
2023-04-19T23:12:01.494Z,99331.23
2023-04-19T23:14:29.698Z,99330.15
2023-04-19T23:16:57.775Z,99326.54
2023-04-19T23:19:26.460Z,99321.84
2023-04-19T23:21:54.514Z,99310.77
2023-04-19T23:24:22.592Z,99309.23
2023-04-19T23:26:50.828Z,99307.75
2023-04-19T23:29:19.028Z,99307.48
2023-04-19T23:31:47.306Z,99309.17
2023-04-19T23:34:16.743Z,99310.66
2023-04-19T23:36:44.905Z,99307.85
2023-04-19T23:39:12.963Z,99308.98
2023-04-19T23:41:40.969Z,99306.65
2023-04-19T23:44:09.275Z,99307.11
2023-04-19T23:46:37.373Z,99305.61
2023-04-19T23:49:07.598Z,99306.00
2023-04-19T23:51:36.502Z,99303.91
2023-04-19T23:54:04.657Z,99305.16
2023-04-19T23:56:33.522Z,99298.48
2023-04-19T23:59:01.767Z,99296.23
